Cape Bata — V7EF2 — position and weather

sailwx.info

Track history (hours):
 
Tides and Currents Weather Stations Pressure Air Temp Water Temp Dewpoint Dewpoint Depression Visibility Wind Speed Wind Dir Waves Ship Positions

Cape Bata

Last reported at 2014-Sep-09 22:03 UTC. Time now 2014-Sep-15 04:02 UTC.
Position N 25°16' E 057°58'.

Length 274 m; draft 14.1 m.

Type: Tanker. MMSI: 538090162.

Date/timePositionNaut miles runAvg speedWind from/ knotsBaromVisibWave heightAir tempDewpointWater temp
2014-Sep-09 22:03N 25°16' E 057°58'713.4
2014-Sep-09 21:33N 25°18' E 057°51'1413.4
2014-Sep-09 20:33N 25°23' E 057°37'1413.5
2014-Sep-09 19:32N 25°28' E 057°23'1313.0
2014-Sep-09 18:33N 25°35' E 057°11'1313.3
2014-Sep-09 17:33N 25°45' E 057°02'1313.3
2014-Sep-09 16:33N 25°57' E 056°55'1313.3
2014-Sep-09 15:33N 26°09' E 056°48'1312.8
2014-Sep-09 14:33N 26°20' E 056°41'  
2014-Sep-07 05:33N 26°53' E 050°11'  
Track history (hours):
 
Tides and Currents Weather Stations Pressure Air Temp Water Temp Dewpoint Dewpoint Depression Visibility Wind Speed Wind Dir Waves Ship Positions

Cape Bata

Last reported at 2014-Sep-09 22:03 UTC. Time now 2014-Sep-15 04:02 UTC.
Position N 25°16' E 057°58'.

Length 274 m; draft 14.1 m.

Type: Tanker. MMSI: 538090162.

Date/timePositionNaut miles runAvg speedWind from/ knotsBaromVisibWave heightAir tempDewpointWater temp
2014-Sep-09 22:03N 25°16' E 057°58'713.4
2014-Sep-09 21:33N 25°18' E 057°51'1413.4
2014-Sep-09 20:33N 25°23' E 057°37'1413.5
2014-Sep-09 19:32N 25°28' E 057°23'1313.0
2014-Sep-09 18:33N 25°35' E 057°11'1313.3
2014-Sep-09 17:33N 25°45' E 057°02'1313.3
2014-Sep-09 16:33N 25°57' E 056°55'1313.3
2014-Sep-09 15:33N 26°09' E 056°48'1312.8
2014-Sep-09 14:33N 26°20' E 056°41'  
2014-Sep-07 05:33N 26°53' E 050°11'  

Dump ship's entire track history